sensor_id;sensor_type;location;lat;lon;timestamp;P1;durP1;ratioP1;P2;durP2;ratioP2
7971;SDS011;4031;49.758;6.120;2023-08-20T00:01:30;10.63;;;6.37;;
7971;SDS011;4031;49.758;6.120;2023-08-20T00:03:56;10.53;;;7.13;;
7971;SDS011;4031;49.758;6.120;2023-08-20T00:06:22;12.33;;;7.10;;
7971;SDS011;4031;49.758;6.120;2023-08-20T00:08:49;10.10;;;6.60;;
7971;SDS011;4031;49.758;6.120;2023-08-20T00:11:15;7.90;;;5.47;;
7971;SDS011;4031;49.758;6.120;2023-08-20T00:13:41;7.80;;;5.53;;
7971;SDS011;4031;49.758;6.120;2023-08-20T00:16:07;9.47;;;5.50;;
7971;SDS011;4031;49.758;6.120;2023-08-20T00:18:34;8.57;;;6.17;;
7971;SDS011;4031;49.758;6.120;2023-08-20T00:21:00;8.10;;;5.50;;
7971;SDS011;4031;49.758;6.120;2023-08-20T00:23:26;10.00;;;6.03;;
7971;SDS011;4031;49.758;6.120;2023-08-20T00:25:52;15.20;;;6.97;;
7971;SDS011;4031;49.758;6.120;2023-08-20T00:28:19;9.50;;;6.87;;
7971;SDS011;4031;49.758;6.120;2023-08-20T00:30:45;11.50;;;6.80;;
7971;SDS011;4031;49.758;6.120;2023-08-20T00:33:11;11.10;;;6.70;;
7971;SDS011;4031;49.758;6.120;2023-08-20T00:35:38;12.27;;;6.70;;
7971;SDS011;4031;49.758;6.120;2023-08-20T00:38:03;11.47;;;6.83;;
7971;SDS011;4031;49.758;6.120;2023-08-20T00:40:30;10.90;;;7.03;;
7971;SDS011;4031;49.758;6.120;2023-08-20T00:42:56;10.00;;;6.87;;
7971;SDS011;4031;49.758;6.120;2023-08-20T00:45:22;9.20;;;6.43;;
7971;SDS011;4031;49.758;6.120;2023-08-20T00:47:48;13.47;;;7.33;;
7971;SDS011;4031;49.758;6.120;2023-08-20T00:50:15;9.80;;;5.93;;
7971;SDS011;4031;49.758;6.120;2023-08-20T00:52:41;13.60;;;7.43;;
7971;SDS011;4031;49.758;6.120;2023-08-20T00:55:11;14.13;;;6.77;;
7971;SDS011;4031;49.758;6.120;2023-08-20T00:57:40;12.00;;;7.43;;
7971;SDS011;4031;49.758;6.120;2023-08-20T01:00:07;11.93;;;7.37;;
7971;SDS011;4031;49.758;6.120;2023-08-20T01:02:35;10.07;;;6.60;;
7971;SDS011;4031;49.758;6.120;2023-08-20T01:05:03;9.60;;;7.23;;
7971;SDS011;4031;49.758;6.120;2023-08-20T01:10:19;13.27;;;7.13;;
7971;SDS011;4031;49.758;6.120;2023-08-20T01:13:10;18.03;;;8.50;;
7971;SDS011;4031;49.758;6.120;2023-08-20T01:15:37;18.17;;;8.80;;
7971;SDS011;4031;49.758;6.120;2023-08-20T01:18:02;16.40;;;9.07;;
7971;SDS011;4031;49.758;6.120;2023-08-20T01:20:30;24.93;;;9.70;;
7971;SDS011;4031;49.758;6.120;2023-08-20T01:23:12;14.90;;;7.87;;
7971;SDS011;4031;49.758;6.120;2023-08-20T01:26:47;17.50;;;8.33;;
7971;SDS011;4031;49.758;6.120;2023-08-20T01:29:34;22.80;;;9.00;;
7971;SDS011;4031;49.758;6.120;2023-08-20T01:32:01;18.67;;;9.73;;
7971;SDS011;4031;49.758;6.120;2023-08-20T01:34:29;18.67;;;9.10;;
7971;SDS011;4031;49.758;6.120;2023-08-20T01:36:55;13.23;;;8.47;;
7971;SDS011;4031;49.758;6.120;2023-08-20T01:39:21;24.37;;;9.73;;
7971;SDS011;4031;49.758;6.120;2023-08-20T01:41:46;20.90;;;9.37;;
7971;SDS011;4031;49.758;6.120;2023-08-20T01:44:12;23.40;;;9.80;;
7971;SDS011;4031;49.758;6.120;2023-08-20T01:46:38;30.93;;;9.57;;
7971;SDS011;4031;49.758;6.120;2023-08-20T01:49:04;23.70;;;10.20;;
7971;SDS011;4031;49.758;6.120;2023-08-20T01:51:30;33.30;;;10.03;;
7971;SDS011;4031;49.758;6.120;2023-08-20T01:53:55;61.77;;;12.60;;
7971;SDS011;4031;49.758;6.120;2023-08-20T01:56:21;45.90;;;12.60;;
7971;SDS011;4031;49.758;6.120;2023-08-20T01:58:47;20.63;;;9.13;;
7971;SDS011;4031;49.758;6.120;2023-08-20T02:01:12;28.50;;;10.00;;
7971;SDS011;4031;49.758;6.120;2023-08-20T02:03:38;22.30;;;8.10;;
7971;SDS011;4031;49.758;6.120;2023-08-20T02:06:04;31.97;;;8.80;;
7971;SDS011;4031;49.758;6.120;2023-08-20T02:08:30;24.23;;;9.83;;
7971;SDS011;4031;49.758;6.120;2023-08-20T02:11:02;21.53;;;10.30;;
7971;SDS011;4031;49.758;6.120;2023-08-20T02:13:28;22.37;;;10.00;;
7971;SDS011;4031;49.758;6.120;2023-08-20T02:15:59;20.40;;;8.70;;
7971;SDS011;4031;49.758;6.120;2023-08-20T02:18:26;19.60;;;9.43;;
7971;SDS011;4031;49.758;6.120;2023-08-20T02:20:53;30.87;;;10.50;;
7971;SDS011;4031;49.758;6.120;2023-08-20T02:23:18;50.83;;;11.20;;
7971;SDS011;4031;49.758;6.120;2023-08-20T02:25:44;33.10;;;9.70;;
7971;SDS011;4031;49.758;6.120;2023-08-20T02:28:10;30.57;;;9.60;;
7971;SDS011;4031;49.758;6.120;2023-08-20T02:30:42;29.93;;;8.80;;
7971;SDS011;4031;49.758;6.120;2023-08-20T02:33:11;28.40;;;10.17;;
7971;SDS011;4031;49.758;6.120;2023-08-20T02:35:37;27.13;;;9.60;;
7971;SDS011;4031;49.758;6.120;2023-08-20T02:38:04;18.60;;;8.07;;
7971;SDS011;4031;49.758;6.120;2023-08-20T02:40:30;26.47;;;8.53;;
7971;SDS011;4031;49.758;6.120;2023-08-20T02:42:56;23.23;;;8.43;;
7971;SDS011;4031;49.758;6.120;2023-08-20T02:45:22;25.87;;;9.10;;
7971;SDS011;4031;49.758;6.120;2023-08-20T02:47:48;26.93;;;8.47;;
7971;SDS011;4031;49.758;6.120;2023-08-20T02:50:14;11.40;;;7.77;;
7971;SDS011;4031;49.758;6.120;2023-08-20T02:52:41;16.60;;;8.77;;
7971;SDS011;4031;49.758;6.120;2023-08-20T02:55:08;14.90;;;8.50;;
7971;SDS011;4031;49.758;6.120;2023-08-20T02:57:33;18.00;;;7.90;;
7971;SDS011;4031;49.758;6.120;2023-08-20T02:59:59;24.40;;;9.13;;
7971;SDS011;4031;49.758;6.120;2023-08-20T03:02:25;25.93;;;9.10;;
7971;SDS011;4031;49.758;6.120;2023-08-20T03:04:51;18.40;;;8.70;;
7971;SDS011;4031;49.758;6.120;2023-08-20T03:07:18;15.77;;;7.77;;
7971;SDS011;4031;49.758;6.120;2023-08-20T03:09:43;19.20;;;8.97;;
7971;SDS011;4031;49.758;6.120;2023-08-20T03:12:09;19.60;;;9.63;;
7971;SDS011;4031;49.758;6.120;2023-08-20T03:14:35;22.23;;;9.07;;
7971;SDS011;4031;49.758;6.120;2023-08-20T03:17:00;18.27;;;8.30;;
7971;SDS011;4031;49.758;6.120;2023-08-20T03:19:26;23.27;;;9.00;;
7971;SDS011;4031;49.758;6.120;2023-08-20T03:21:58;19.93;;;9.03;;
7971;SDS011;4031;49.758;6.120;2023-08-20T03:24:23;20.10;;;8.60;;
7971;SDS011;4031;49.758;6.120;2023-08-20T03:26:49;17.90;;;8.90;;
7971;SDS011;4031;49.758;6.120;2023-08-20T03:29:15;17.20;;;8.80;;
7971;SDS011;4031;49.758;6.120;2023-08-20T03:31:40;16.57;;;8.40;;
7971;SDS011;4031;49.758;6.120;2023-08-20T03:34:06;19.83;;;9.13;;
7971;SDS011;4031;49.758;6.120;2023-08-20T03:36:34;17.80;;;8.40;;
7971;SDS011;4031;49.758;6.120;2023-08-20T03:39:00;16.03;;;9.00;;
7971;SDS011;4031;49.758;6.120;2023-08-20T03:41:26;14.13;;;7.30;;
7971;SDS011;4031;49.758;6.120;2023-08-20T03:43:51;16.70;;;9.10;;
7971;SDS011;4031;49.758;6.120;2023-08-20T03:46:17;15.67;;;8.97;;
7971;SDS011;4031;49.758;6.120;2023-08-20T03:48:43;16.93;;;8.13;;
7971;SDS011;4031;49.758;6.120;2023-08-20T03:51:08;18.23;;;8.57;;
7971;SDS011;4031;49.758;6.120;2023-08-20T03:53:34;16.30;;;9.80;;
7971;SDS011;4031;49.758;6.120;2023-08-20T03:56:00;24.70;;;8.97;;
7971;SDS011;4031;49.758;6.120;2023-08-20T03:58:26;22.67;;;9.70;;
7971;SDS011;4031;49.758;6.120;2023-08-20T04:00:51;17.73;;;9.97;;
7971;SDS011;4031;49.758;6.120;2023-08-20T04:03:17;23.90;;;9.50;;
7971;SDS011;4031;49.758;6.120;2023-08-20T04:05:44;18.53;;;8.37;;
7971;SDS011;4031;49.758;6.120;2023-08-20T04:08:10;17.67;;;8.60;;
7971;SDS011;4031;49.758;6.120;2023-08-20T04:10:41;18.20;;;8.77;;
7971;SDS011;4031;49.758;6.120;2023-08-20T04:13:10;30.63;;;11.40;;
7971;SDS011;4031;49.758;6.120;2023-08-20T04:15:35;20.90;;;10.63;;
7971;SDS011;4031;49.758;6.120;2023-08-20T04:18:01;26.93;;;11.80;;
7971;SDS011;4031;49.758;6.120;2023-08-20T04:20:27;23.77;;;9.50;;
7971;SDS011;4031;49.758;6.120;2023-08-20T04:22:53;22.67;;;9.17;;
7971;SDS011;4031;49.758;6.120;2023-08-20T04:25:19;27.07;;;10.63;;
7971;SDS011;4031;49.758;6.120;2023-08-20T04:27:45;24.70;;;9.17;;
7971;SDS011;4031;49.758;6.120;2023-08-20T04:30:10;23.20;;;8.97;;
7971;SDS011;4031;49.758;6.120;2023-08-20T04:32:36;15.43;;;8.27;;
7971;SDS011;4031;49.758;6.120;2023-08-20T04:35:02;19.23;;;8.80;;
7971;SDS011;4031;49.758;6.120;2023-08-20T04:37:28;29.47;;;10.10;;
7971;SDS011;4031;49.758;6.120;2023-08-20T04:39:54;18.93;;;8.97;;
7971;SDS011;4031;49.758;6.120;2023-08-20T04:42:20;16.40;;;9.30;;
7971;SDS011;4031;49.758;6.120;2023-08-20T04:44:45;15.70;;;8.07;;
7971;SDS011;4031;49.758;6.120;2023-08-20T04:47:11;21.30;;;10.47;;
7971;SDS011;4031;49.758;6.120;2023-08-20T04:49:38;27.03;;;9.37;;
7971;SDS011;4031;49.758;6.120;2023-08-20T04:52:04;19.90;;;11.10;;
7971;SDS011;4031;49.758;6.120;2023-08-20T04:54:29;16.03;;;8.80;;
7971;SDS011;4031;49.758;6.120;2023-08-20T04:56:55;31.53;;;9.80;;
7971;SDS011;4031;49.758;6.120;2023-08-20T04:59:21;18.57;;;9.37;;
7971;SDS011;4031;49.758;6.120;2023-08-20T05:01:47;32.47;;;10.37;;
7971;SDS011;4031;49.758;6.120;2023-08-20T05:04:13;22.37;;;9.83;;
7971;SDS011;4031;49.758;6.120;2023-08-20T05:06:38;25.50;;;9.13;;
7971;SDS011;4031;49.758;6.120;2023-08-20T05:09:04;35.67;;;10.07;;
7971;SDS011;4031;49.758;6.120;2023-08-20T05:11:30;20.03;;;9.00;;
7971;SDS011;4031;49.758;6.120;2023-08-20T05:13:57;37.97;;;9.33;;
7971;SDS011;4031;49.758;6.120;2023-08-20T05:16:23;45.77;;;9.10;;
7971;SDS011;4031;49.758;6.120;2023-08-20T05:18:49;39.97;;;9.07;;
7971;SDS011;4031;49.758;6.120;2023-08-20T05:21:15;18.63;;;8.20;;
7971;SDS011;4031;49.758;6.120;2023-08-20T05:23:40;12.23;;;8.07;;
7971;SDS011;4031;49.758;6.120;2023-08-20T05:26:06;17.60;;;7.93;;
7971;SDS011;4031;49.758;6.120;2023-08-20T05:28:33;16.43;;;8.30;;
7971;SDS011;4031;49.758;6.120;2023-08-20T05:30:59;15.97;;;8.50;;
7971;SDS011;4031;49.758;6.120;2023-08-20T05:33:25;50.40;;;9.47;;
7971;SDS011;4031;49.758;6.120;2023-08-20T05:35:51;19.13;;;8.13;;
7971;SDS011;4031;49.758;6.120;2023-08-20T05:38:17;13.77;;;7.53;;
7971;SDS011;4031;49.758;6.120;2023-08-20T05:40:43;26.83;;;8.90;;
7971;SDS011;4031;49.758;6.120;2023-08-20T05:43:09;32.70;;;8.60;;
7971;SDS011;4031;49.758;6.120;2023-08-20T05:45:35;26.93;;;8.50;;
7971;SDS011;4031;49.758;6.120;2023-08-20T05:48:01;37.63;;;9.00;;
7971;SDS011;4031;49.758;6.120;2023-08-20T05:50:26;20.63;;;7.60;;
7971;SDS011;4031;49.758;6.120;2023-08-20T05:52:52;16.13;;;8.33;;
7971;SDS011;4031;49.758;6.120;2023-08-20T05:55:18;11.03;;;6.13;;
7971;SDS011;4031;49.758;6.120;2023-08-20T05:57:44;13.73;;;6.60;;
7971;SDS011;4031;49.758;6.120;2023-08-20T06:00:10;22.60;;;7.57;;
7971;SDS011;4031;49.758;6.120;2023-08-20T06:02:36;10.03;;;6.73;;
7971;SDS011;4031;49.758;6.120;2023-08-20T06:05:03;17.97;;;6.70;;
7971;SDS011;4031;49.758;6.120;2023-08-20T06:07:33;12.00;;;6.47;;
7971;SDS011;4031;49.758;6.120;2023-08-20T06:09:59;13.53;;;6.03;;
7971;SDS011;4031;49.758;6.120;2023-08-20T06:12:24;13.60;;;5.60;;
7971;SDS011;4031;49.758;6.120;2023-08-20T06:14:50;8.10;;;5.43;;
7971;SDS011;4031;49.758;6.120;2023-08-20T06:17:16;7.53;;;5.20;;
7971;SDS011;4031;49.758;6.120;2023-08-20T06:19:42;9.53;;;5.83;;
7971;SDS011;4031;49.758;6.120;2023-08-20T06:22:07;12.13;;;6.00;;
7971;SDS011;4031;49.758;6.120;2023-08-20T06:24:33;10.30;;;4.80;;
7971;SDS011;4031;49.758;6.120;2023-08-20T06:26:59;7.00;;;4.50;;
7971;SDS011;4031;49.758;6.120;2023-08-20T06:29:25;5.63;;;4.70;;
7971;SDS011;4031;49.758;6.120;2023-08-20T06:31:50;12.07;;;4.87;;
7971;SDS011;4031;49.758;6.120;2023-08-20T06:34:16;5.47;;;4.97;;
7971;SDS011;4031;49.758;6.120;2023-08-20T06:36:42;5.90;;;5.30;;
7971;SDS011;4031;49.758;6.120;2023-08-20T06:39:08;6.57;;;5.60;;
7971;SDS011;4031;49.758;6.120;2023-08-20T06:41:34;6.70;;;5.10;;
7971;SDS011;4031;49.758;6.120;2023-08-20T06:44:00;5.60;;;5.10;;
7971;SDS011;4031;49.758;6.120;2023-08-20T06:46:27;5.20;;;4.70;;
7971;SDS011;4031;49.758;6.120;2023-08-20T06:48:53;4.43;;;4.13;;
7971;SDS011;4031;49.758;6.120;2023-08-20T06:51:19;5.00;;;4.60;;
7971;SDS011;4031;49.758;6.120;2023-08-20T06:53:47;4.23;;;3.93;;
7971;SDS011;4031;49.758;6.120;2023-08-20T06:56:13;3.60;;;3.07;;
7971;SDS011;4031;49.758;6.120;2023-08-20T06:58:40;3.10;;;2.90;;
7971;SDS011;4031;49.758;6.120;2023-08-20T07:01:07;2.83;;;2.63;;
7971;SDS011;4031;49.758;6.120;2023-08-20T07:03:40;3.17;;;2.80;;
7971;SDS011;4031;49.758;6.120;2023-08-20T07:06:08;4.23;;;2.83;;
7971;SDS011;4031;49.758;6.120;2023-08-20T07:08:35;2.63;;;2.43;;
7971;SDS011;4031;49.758;6.120;2023-08-20T07:11:03;3.10;;;2.90;;
7971;SDS011;4031;49.758;6.120;2023-08-20T07:13:29;3.27;;;3.07;;
7971;SDS011;4031;49.758;6.120;2023-08-20T07:15:55;3.40;;;3.10;;
7971;SDS011;4031;49.758;6.120;2023-08-20T07:18:20;3.40;;;3.10;;
7971;SDS011;4031;49.758;6.120;2023-08-20T07:20:46;3.07;;;2.77;;
7971;SDS011;4031;49.758;6.120;2023-08-20T07:23:12;3.67;;;3.37;;
7971;SDS011;4031;49.758;6.120;2023-08-20T07:25:38;3.30;;;3.00;;
7971;SDS011;4031;49.758;6.120;2023-08-20T07:28:06;3.03;;;2.70;;
7971;SDS011;4031;49.758;6.120;2023-08-20T07:30:33;3.40;;;3.20;;
7971;SDS011;4031;49.758;6.120;2023-08-20T07:33:00;2.80;;;2.60;;
7971;SDS011;4031;49.758;6.120;2023-08-20T07:35:26;2.73;;;2.53;;
7971;SDS011;4031;49.758;6.120;2023-08-20T07:37:52;2.80;;;2.60;;
7971;SDS011;4031;49.758;6.120;2023-08-20T07:40:18;3.50;;;3.23;;
7971;SDS011;4031;49.758;6.120;2023-08-20T07:42:44;2.93;;;2.70;;
7971;SDS011;4031;49.758;6.120;2023-08-20T07:45:09;3.90;;;2.90;;
7971;SDS011;4031;49.758;6.120;2023-08-20T07:47:36;3.37;;;3.17;;
7971;SDS011;4031;49.758;6.120;2023-08-20T07:50:02;3.17;;;2.87;;
7971;SDS011;4031;49.758;6.120;2023-08-20T07:52:31;2.80;;;2.60;;
7971;SDS011;4031;49.758;6.120;2023-08-20T07:54:58;3.00;;;2.33;;
7971;SDS011;4031;49.758;6.120;2023-08-20T07:57:24;2.30;;;2.10;;
7971;SDS011;4031;49.758;6.120;2023-08-20T07:59:50;3.03;;;2.73;;
7971;SDS011;4031;49.758;6.120;2023-08-20T08:02:16;2.53;;;2.20;;
7971;SDS011;4031;49.758;6.120;2023-08-20T08:04:42;2.87;;;2.67;;
7971;SDS011;4031;49.758;6.120;2023-08-20T08:07:08;2.50;;;2.30;;
7971;SDS011;4031;49.758;6.120;2023-08-20T08:09:34;2.20;;;2.10;;
7971;SDS011;4031;49.758;6.120;2023-08-20T08:12:01;10.33;;;2.77;;
7971;SDS011;4031;49.758;6.120;2023-08-20T08:14:27;2.23;;;2.10;;
7971;SDS011;4031;49.758;6.120;2023-08-20T08:16:53;3.30;;;2.33;;
7971;SDS011;4031;49.758;6.120;2023-08-20T08:19:20;2.27;;;2.07;;
7971;SDS011;4031;49.758;6.120;2023-08-20T08:21:45;2.83;;;2.60;;
7971;SDS011;4031;49.758;6.120;2023-08-20T08:24:12;2.30;;;2.10;;
7971;SDS011;4031;49.758;6.120;2023-08-20T08:26:39;2.60;;;2.40;;
7971;SDS011;4031;49.758;6.120;2023-08-20T08:29:06;3.10;;;2.50;;
7971;SDS011;4031;49.758;6.120;2023-08-20T08:31:33;2.70;;;2.50;;
7971;SDS011;4031;49.758;6.120;2023-08-20T08:33:59;3.27;;;2.23;;
7971;SDS011;4031;49.758;6.120;2023-08-20T08:36:26;2.77;;;2.57;;
7971;SDS011;4031;49.758;6.120;2023-08-20T08:38:52;2.50;;;2.17;;
7971;SDS011;4031;49.758;6.120;2023-08-20T08:41:20;3.33;;;1.87;;
7971;SDS011;4031;49.758;6.120;2023-08-20T08:43:50;1.97;;;1.77;;
7971;SDS011;4031;49.758;6.120;2023-08-20T08:46:16;2.50;;;2.30;;
7971;SDS011;4031;49.758;6.120;2023-08-20T08:48:42;2.43;;;1.83;;
7971;SDS011;4031;49.758;6.120;2023-08-20T08:51:09;2.00;;;1.90;;
7971;SDS011;4031;49.758;6.120;2023-08-20T08:53:36;2.10;;;2.00;;
7971;SDS011;4031;49.758;6.120;2023-08-20T08:56:03;1.90;;;1.80;;
7971;SDS011;4031;49.758;6.120;2023-08-20T08:58:30;2.50;;;2.30;;
7971;SDS011;4031;49.758;6.120;2023-08-20T09:00:57;2.10;;;1.93;;
7971;SDS011;4031;49.758;6.120;2023-08-20T09:03:24;2.57;;;2.37;;
7971;SDS011;4031;49.758;6.120;2023-08-20T09:06:00;2.40;;;1.83;;
7971;SDS011;4031;49.758;6.120;2023-08-20T09:08:30;2.33;;;2.20;;
7971;SDS011;4031;49.758;6.120;2023-08-20T09:10:57;2.40;;;1.90;;
7971;SDS011;4031;49.758;6.120;2023-08-20T09:13:26;2.67;;;2.40;;
7971;SDS011;4031;49.758;6.120;2023-08-20T09:16:02;2.27;;;2.17;;
7971;SDS011;4031;49.758;6.120;2023-08-20T09:18:30;1.90;;;1.80;;
7971;SDS011;4031;49.758;6.120;2023-08-20T09:20:57;2.27;;;1.90;;
7971;SDS011;4031;49.758;6.120;2023-08-20T09:23:26;1.77;;;1.67;;
7971;SDS011;4031;49.758;6.120;2023-08-20T09:25:54;2.03;;;1.93;;
7971;SDS011;4031;49.758;6.120;2023-08-20T09:28:20;1.50;;;1.40;;
7971;SDS011;4031;49.758;6.120;2023-08-20T09:30:56;1.80;;;1.70;;
7971;SDS011;4031;49.758;6.120;2023-08-20T09:33:26;2.17;;;1.73;;
7971;SDS011;4031;49.758;6.120;2023-08-20T09:35:52;2.07;;;1.80;;
7971;SDS011;4031;49.758;6.120;2023-08-20T09:38:19;2.20;;;2.10;;
7971;SDS011;4031;49.758;6.120;2023-08-20T09:40:47;2.33;;;1.80;;
7971;SDS011;4031;49.758;6.120;2023-08-20T09:43:15;2.07;;;1.97;;
7971;SDS011;4031;49.758;6.120;2023-08-20T09:45:42;2.00;;;1.40;;
7971;SDS011;4031;49.758;6.120;2023-08-20T09:48:09;1.83;;;1.33;;
7971;SDS011;4031;49.758;6.120;2023-08-20T09:50:36;1.93;;;1.30;;
7971;SDS011;4031;49.758;6.120;2023-08-20T09:53:06;1.70;;;1.60;;
7971;SDS011;4031;49.758;6.120;2023-08-20T09:55:50;1.50;;;1.40;;
7971;SDS011;4031;49.758;6.120;2023-08-20T09:58:17;1.60;;;1.50;;
7971;SDS011;4031;49.758;6.120;2023-08-20T10:00:50;1.43;;;1.33;;
7971;SDS011;4031;49.758;6.120;2023-08-20T10:03:16;1.30;;;1.20;;
7971;SDS011;4031;49.758;6.120;2023-08-20T10:05:45;1.40;;;1.30;;
7971;SDS011;4031;49.758;6.120;2023-08-20T10:08:14;1.30;;;0.90;;
7971;SDS011;4031;49.758;6.120;2023-08-20T10:10:40;1.77;;;1.67;;
7971;SDS011;4031;49.758;6.120;2023-08-20T10:13:06;1.53;;;1.20;;
7971;SDS011;4031;49.758;6.120;2023-08-20T10:15:32;1.40;;;1.30;;
7971;SDS011;4031;49.758;6.120;2023-08-20T10:18:01;1.53;;;1.00;;
7971;SDS011;4031;49.758;6.120;2023-08-20T10:20:28;1.40;;;1.30;;
7971;SDS011;4031;49.758;6.120;2023-08-20T10:22:57;1.10;;;1.00;;
7971;SDS011;4031;49.758;6.120;2023-08-20T10:25:27;1.60;;;1.00;;
7971;SDS011;4031;49.758;6.120;2023-08-20T10:27:54;1.37;;;1.10;;
7971;SDS011;4031;49.758;6.120;2023-08-20T10:31:02;1.07;;;0.97;;
7971;SDS011;4031;49.758;6.120;2023-08-20T10:33:36;1.50;;;1.10;;
7971;SDS011;4031;49.758;6.120;2023-08-20T10:38:51;1.10;;;1.00;;
7971;SDS011;4031;49.758;6.120;2023-08-20T10:41:29;1.13;;;1.03;;
7971;SDS011;4031;49.758;6.120;2023-08-20T10:43:58;1.00;;;0.93;;
7971;SDS011;4031;49.758;6.120;2023-08-20T10:46:26;1.10;;;0.90;;
7971;SDS011;4031;49.758;6.120;2023-08-20T10:48:55;0.90;;;0.90;;
7971;SDS011;4031;49.758;6.120;2023-08-20T11:01:51;1.47;;;1.37;;
7971;SDS011;4031;49.758;6.120;2023-08-20T11:04:24;1.50;;;1.40;;
7971;SDS011;4031;49.758;6.120;2023-08-20T11:06:57;1.40;;;1.30;;
7971;SDS011;4031;49.758;6.120;2023-08-20T11:09:24;2.60;;;1.70;;
7971;SDS011;4031;49.758;6.120;2023-08-20T11:11:54;1.23;;;1.13;;
7971;SDS011;4031;49.758;6.120;2023-08-20T11:14:21;1.30;;;1.20;;
7971;SDS011;4031;49.758;6.120;2023-08-20T11:16:47;1.47;;;1.30;;
7971;SDS011;4031;49.758;6.120;2023-08-20T11:19:14;1.60;;;1.50;;
7971;SDS011;4031;49.758;6.120;2023-08-20T11:21:44;1.60;;;1.50;;
7971;SDS011;4031;49.758;6.120;2023-08-20T11:24:11;2.13;;;1.20;;
7971;SDS011;4031;49.758;6.120;2023-08-20T11:26:40;1.70;;;1.40;;
7971;SDS011;4031;49.758;6.120;2023-08-20T11:29:08;2.93;;;1.27;;
7971;SDS011;4031;49.758;6.120;2023-08-20T11:31:35;1.30;;;1.20;;
7971;SDS011;4031;49.758;6.120;2023-08-20T11:34:02;1.37;;;1.20;;
7971;SDS011;4031;49.758;6.120;2023-08-20T11:36:28;1.20;;;1.10;;
7971;SDS011;4031;49.758;6.120;2023-08-20T11:38:54;1.13;;;1.03;;
7971;SDS011;4031;49.758;6.120;2023-08-20T11:41:20;1.40;;;1.30;;
7971;SDS011;4031;49.758;6.120;2023-08-20T11:43:51;2.10;;;1.10;;
7971;SDS011;4031;49.758;6.120;2023-08-20T11:46:19;1.30;;;1.20;;
7971;SDS011;4031;49.758;6.120;2023-08-20T11:51:34;1.43;;;1.33;;
7971;SDS011;4031;49.758;6.120;2023-08-20T11:54:09;1.33;;;1.23;;
7971;SDS011;4031;49.758;6.120;2023-08-20T11:59:13;1.20;;;1.03;;
7971;SDS011;4031;49.758;6.120;2023-08-20T12:01:40;2.07;;;1.27;;
7971;SDS011;4031;49.758;6.120;2023-08-20T12:04:07;1.67;;;1.57;;
7971;SDS011;4031;49.758;6.120;2023-08-20T12:06:35;1.23;;;1.13;;
7971;SDS011;4031;49.758;6.120;2023-08-20T12:09:12;1.37;;;1.27;;
7971;SDS011;4031;49.758;6.120;2023-08-20T12:11:49;2.00;;;1.30;;
7971;SDS011;4031;49.758;6.120;2023-08-20T12:14:17;1.17;;;1.00;;
7971;SDS011;4031;49.758;6.120;2023-08-20T12:16:44;1.23;;;1.13;;
7971;SDS011;4031;49.758;6.120;2023-08-20T12:19:10;1.17;;;1.17;;
7971;SDS011;4031;49.758;6.120;2023-08-20T12:21:38;1.73;;;1.40;;
7971;SDS011;4031;49.758;6.120;2023-08-20T12:24:05;1.47;;;1.10;;
7971;SDS011;4031;49.758;6.120;2023-08-20T12:26:32;1.30;;;1.20;;
7971;SDS011;4031;49.758;6.120;2023-08-20T12:28:57;1.33;;;1.23;;
7971;SDS011;4031;49.758;6.120;2023-08-20T12:31:23;1.47;;;1.37;;
7971;SDS011;4031;49.758;6.120;2023-08-20T12:33:49;1.17;;;1.07;;
7971;SDS011;4031;49.758;6.120;2023-08-20T12:36:14;1.83;;;1.07;;
7971;SDS011;4031;49.758;6.120;2023-08-20T12:38:40;1.10;;;1.10;;
7971;SDS011;4031;49.758;6.120;2023-08-20T12:41:06;2.30;;;1.30;;
7971;SDS011;4031;49.758;6.120;2023-08-20T12:43:32;1.10;;;1.00;;
7971;SDS011;4031;49.758;6.120;2023-08-20T12:45:58;1.33;;;1.23;;
7971;SDS011;4031;49.758;6.120;2023-08-20T12:48:24;1.30;;;1.17;;
7971;SDS011;4031;49.758;6.120;2023-08-20T12:50:49;2.03;;;1.40;;
7971;SDS011;4031;49.758;6.120;2023-08-20T12:53:15;1.30;;;1.20;;
7971;SDS011;4031;49.758;6.120;2023-08-20T12:55:41;1.50;;;1.40;;
7971;SDS011;4031;49.758;6.120;2023-08-20T12:58:07;1.33;;;1.23;;
7971;SDS011;4031;49.758;6.120;2023-08-20T13:00:32;1.20;;;1.10;;
7971;SDS011;4031;49.758;6.120;2023-08-20T13:02:58;1.43;;;1.33;;
7971;SDS011;4031;49.758;6.120;2023-08-20T13:05:25;3.10;;;1.37;;
7971;SDS011;4031;49.758;6.120;2023-08-20T13:07:52;2.37;;;1.20;;
7971;SDS011;4031;49.758;6.120;2023-08-20T13:10:18;1.37;;;1.00;;
7971;SDS011;4031;49.758;6.120;2023-08-20T13:12:50;1.37;;;1.27;;
7971;SDS011;4031;49.758;6.120;2023-08-20T13:15:19;1.43;;;1.33;;
7971;SDS011;4031;49.758;6.120;2023-08-20T13:17:47;1.33;;;1.13;;
7971;SDS011;4031;49.758;6.120;2023-08-20T13:20:15;1.23;;;1.13;;
7971;SDS011;4031;49.758;6.120;2023-08-20T13:22:48;1.30;;;1.20;;
7971;SDS011;4031;49.758;6.120;2023-08-20T13:25:14;2.20;;;1.10;;
7971;SDS011;4031;49.758;6.120;2023-08-20T13:27:40;1.10;;;1.03;;
7971;SDS011;4031;49.758;6.120;2023-08-20T13:30:06;1.57;;;1.13;;
7971;SDS011;4031;49.758;6.120;2023-08-20T13:32:36;1.07;;;0.97;;
7971;SDS011;4031;49.758;6.120;2023-08-20T13:35:02;1.10;;;1.10;;
7971;SDS011;4031;49.758;6.120;2023-08-20T13:37:29;1.83;;;1.30;;
7971;SDS011;4031;49.758;6.120;2023-08-20T13:39:58;2.03;;;1.30;;
7971;SDS011;4031;49.758;6.120;2023-08-20T13:42:25;1.50;;;1.30;;
7971;SDS011;4031;49.758;6.120;2023-08-20T13:44:51;1.30;;;1.03;;
7971;SDS011;4031;49.758;6.120;2023-08-20T13:47:17;1.50;;;1.10;;
7971;SDS011;4031;49.758;6.120;2023-08-20T13:49:42;1.90;;;1.67;;
7971;SDS011;4031;49.758;6.120;2023-08-20T13:52:09;2.00;;;1.37;;
7971;SDS011;4031;49.758;6.120;2023-08-20T13:54:35;1.43;;;1.30;;
7971;SDS011;4031;49.758;6.120;2023-08-20T13:57:02;2.07;;;1.10;;
7971;SDS011;4031;49.758;6.120;2023-08-20T13:59:28;1.80;;;1.37;;
7971;SDS011;4031;49.758;6.120;2023-08-20T14:01:55;1.77;;;1.30;;
7971;SDS011;4031;49.758;6.120;2023-08-20T14:04:21;1.43;;;1.33;;
7971;SDS011;4031;49.758;6.120;2023-08-20T14:06:46;1.43;;;1.33;;
7971;SDS011;4031;49.758;6.120;2023-08-20T14:09:13;1.80;;;1.33;;
7971;SDS011;4031;49.758;6.120;2023-08-20T14:11:38;1.13;;;1.03;;
7971;SDS011;4031;49.758;6.120;2023-08-20T14:14:04;2.90;;;1.63;;
7971;SDS011;4031;49.758;6.120;2023-08-20T14:16:31;1.37;;;1.27;;
7971;SDS011;4031;49.758;6.120;2023-08-20T14:18:57;1.40;;;1.20;;
7971;SDS011;4031;49.758;6.120;2023-08-20T14:21:22;2.03;;;1.23;;
7971;SDS011;4031;49.758;6.120;2023-08-20T14:23:48;1.40;;;1.30;;
7971;SDS011;4031;49.758;6.120;2023-08-20T14:26:14;2.10;;;1.20;;
7971;SDS011;4031;49.758;6.120;2023-08-20T14:28:40;2.77;;;1.40;;
7971;SDS011;4031;49.758;6.120;2023-08-20T14:31:08;1.63;;;1.20;;
7971;SDS011;4031;49.758;6.120;2023-08-20T14:33:34;1.37;;;1.27;;
7971;SDS011;4031;49.758;6.120;2023-08-20T14:36:00;1.60;;;1.23;;
7971;SDS011;4031;49.758;6.120;2023-08-20T14:38:27;1.50;;;1.40;;
7971;SDS011;4031;49.758;6.120;2023-08-20T14:40:54;1.03;;;0.93;;
7971;SDS011;4031;49.758;6.120;2023-08-20T14:43:28;1.20;;;1.10;;
7971;SDS011;4031;49.758;6.120;2023-08-20T14:45:54;1.90;;;1.50;;
7971;SDS011;4031;49.758;6.120;2023-08-20T14:48:23;1.33;;;1.23;;
7971;SDS011;4031;49.758;6.120;2023-08-20T14:50:49;1.33;;;1.23;;
7971;SDS011;4031;49.758;6.120;2023-08-20T14:53:16;1.10;;;1.10;;
7971;SDS011;4031;49.758;6.120;2023-08-20T14:55:43;2.03;;;1.30;;
7971;SDS011;4031;49.758;6.120;2023-08-20T14:58:09;1.53;;;1.43;;
7971;SDS011;4031;49.758;6.120;2023-08-20T15:00:35;1.43;;;1.33;;
7971;SDS011;4031;49.758;6.120;2023-08-20T15:03:01;2.20;;;1.47;;
7971;SDS011;4031;49.758;6.120;2023-08-20T15:05:28;1.87;;;1.20;;
7971;SDS011;4031;49.758;6.120;2023-08-20T15:07:54;1.00;;;1.00;;
7971;SDS011;4031;49.758;6.120;2023-08-20T15:10:20;1.03;;;0.93;;
7971;SDS011;4031;49.758;6.120;2023-08-20T15:12:46;2.20;;;1.10;;
7971;SDS011;4031;49.758;6.120;2023-08-20T15:15:12;1.43;;;1.07;;
7971;SDS011;4031;49.758;6.120;2023-08-20T15:17:37;1.30;;;1.20;;
7971;SDS011;4031;49.758;6.120;2023-08-20T15:20:03;1.87;;;1.17;;
7971;SDS011;4031;49.758;6.120;2023-08-20T15:22:30;2.53;;;1.43;;
7971;SDS011;4031;49.758;6.120;2023-08-20T15:24:56;1.73;;;1.20;;
7971;SDS011;4031;49.758;6.120;2023-08-20T15:27:23;1.40;;;1.30;;
7971;SDS011;4031;49.758;6.120;2023-08-20T15:29:52;1.60;;;1.50;;
7971;SDS011;4031;49.758;6.120;2023-08-20T15:32:18;1.50;;;1.40;;